PWSweather.com
Personal Weather Stations
Station Observations
IHTIMAN1
Neighbourhood 1, IhtimanBG 2050

Neighbourhood 1IhtimanBG 2050

Lat: 42.436852, Lon: 23.817921

Elevation: 2066

Station Type: Oregon Scientific WMR968

http://ihtiman-meteo.com

High Low Average
Temperature 69.1°F20.6°C 54.4°F12.4°C 60.3°F15.7°C
Dew Point 62.0°F16.7°C 53.9°F12.2°C 57.3°F14.1°C
Winds 6.9 mph 11.1 kmh Calm Calm 1.0 mph S1.6 kmh S
Wind Gusts 11.5 mph18.5 kmh -- 2.0 mph3.2 kmh
Humidity 98% 62% 91%
Pressure 30.00 in1015.9 mb 29.91 in1012.9 mb -
Precipitation 0.47 in11.9 mm - -
Hour Temp Dew Point Humidity Winds Wind Gusts Pressure Precip Precip Rate Daily Precip Total
12:00 AM 55.9°F13.3°C 54.5°F12.5°C 95% Calm Calm -- 30.00 in1015.9 mb - 0.00 in0.0 mm 0.00 in0.0 mm
12:10 AM 55.9°F13.3°C 54.8°F12.7°C 96% Calm Calm -- 30.00 in1015.9 mb - 0.00 in0.0 mm 0.00 in0.0 mm
12:20 AM 55.9°F13.3°C 54.8°F12.7°C 96% Calm Calm -- 30.00 in1015.9 mb - 0.00 in0.0 mm 0.00 in0.0 mm
12:30 AM 55.7°F13.2°C 54.8°F12.7°C 97% Calm Calm -- 30.00 in1015.9 mb - 0.00 in0.0 mm 0.00 in0.0 mm
12:40 AM 55.6°F13.1°C 54.7°F12.6°C 97% Calm Calm -- 30.00 in1015.9 mb - 0.00 in0.0 mm 0.00 in0.0 mm
12:50 AM 55.4°F13.0°C 54.6°F12.6°C 97% Calm Calm -- 30.00 in1015.9 mb - 0.00 in0.0 mm 0.00 in0.0 mm
01:00 AM 55.2°F12.9°C 54.7°F12.6°C 98% Calm Calm -- 30.00 in1015.9 mb - 0.00 in0.0 mm 0.00 in0.0 mm
01:10 AM 55.0°F12.8°C 54.5°F12.5°C 98% Calm Calm -- 30.00 in1015.9 mb - 0.00 in0.0 mm 0.00 in0.0 mm
01:20 AM 55.0°F12.8°C 54.5°F12.5°C 98% Calm Calm -- 30.00 in1015.9 mb - 0.00 in0.0 mm 0.00 in0.0 mm
01:30 AM 55.0°F12.8°C 54.5°F12.5°C 98% Calm Calm -- 30.00 in1015.9 mb - 0.00 in0.0 mm 0.00 in0.0 mm
01:40 AM 55.4°F13.0°C 54.8°F12.7°C 98% Calm Calm -- 30.00 in1015.9 mb - 0.00 in0.0 mm 0.00 in0.0 mm
01:50 AM 55.6°F13.1°C 55.0°F12.8°C 98% Calm Calm -- 30.00 in1015.9 mb - 0.00 in0.0 mm 0.00 in0.0 mm
02:00 AM 55.8°F13.2°C 55.2°F12.9°C 98% Calm Calm -- 30.00 in1015.9 mb - 0.00 in0.0 mm 0.00 in0.0 mm
02:10 AM 55.8°F13.2°C 55.2°F12.9°C 98% Calm Calm -- 30.00 in1015.9 mb - 0.00 in0.0 mm 0.00 in0.0 mm
02:20 AM 55.6°F13.1°C 55.0°F12.8°C 98% Calm Calm -- 30.00 in1015.9 mb - 0.00 in0.0 mm 0.00 in0.0 mm
02:30 AM 55.4°F13.0°C 54.8°F12.7°C 98% Calm Calm -- 30.00 in1015.9 mb - 0.00 in0.0 mm 0.00 in0.0 mm
02:40 AM 55.5°F13.1°C 54.9°F12.7°C 98% Calm Calm -- 30.00 in1015.9 mb - 0.00 in0.0 mm 0.00 in0.0 mm
02:50 AM 55.8°F13.2°C 55.2°F12.9°C 98% Calm Calm -- 30.00 in1015.9 mb - 0.00 in0.0 mm 0.00 in0.0 mm
03:00 AM 55.9°F13.3°C 55.4°F13.0°C 98% Calm Calm -- 30.00 in1015.9 mb - 0.00 in0.0 mm 0.00 in0.0 mm
03:10 AM 55.9°F13.3°C 55.4°F13.0°C 98% Calm Calm -- 30.00 in1015.9 mb - 0.00 in0.0 mm 0.00 in0.0 mm
03:20 AM 55.9°F13.3°C 55.4°F13.0°C 98% Calm Calm -- 30.00 in1015.9 mb - 0.00 in0.0 mm 0.00 in0.0 mm
03:30 AM 55.8°F13.2°C 55.2°F12.9°C 98% Calm Calm -- 29.97 in1014.9 mb - 0.00 in0.0 mm 0.00 in0.0 mm
03:40 AM 55.6°F13.1°C 55.0°F12.8°C 98% Calm Calm -- 29.97 in1014.9 mb - 0.00 in0.0 mm 0.00 in0.0 mm
03:50 AM 55.4°F13.0°C 54.9°F12.7°C 98% Calm Calm -- 29.97 in1014.9 mb - 0.00 in0.0 mm 0.00 in0.0 mm
04:00 AM 55.4°F13.0°C 54.8°F12.7°C 98% Calm Calm -- 29.97 in1014.9 mb - 0.00 in0.0 mm 0.00 in0.0 mm
04:10 AM 55.2°F12.9°C 54.7°F12.6°C 98% Calm Calm -- 29.97 in1014.9 mb - 0.00 in0.0 mm 0.00 in0.0 mm
04:20 AM 55.0°F12.8°C 54.5°F12.5°C 98% Calm Calm -- 30.00 in1015.9 mb - 0.00 in0.0 mm 0.00 in0.0 mm
04:30 AM 54.9°F12.7°C 54.3°F12.4°C 98% Calm Calm -- 29.97 in1014.9 mb - 0.00 in0.0 mm 0.00 in0.0 mm
04:40 AM 54.7°F12.6°C 54.1°F12.3°C 98% Calm Calm -- 29.97 in1014.9 mb - 0.00 in0.0 mm 0.00 in0.0 mm
04:50 AM 54.5°F12.5°C 53.9°F12.2°C 98% Calm Calm -- 29.97 in1014.9 mb - 0.00 in0.0 mm 0.00 in0.0 mm
05:00 AM 54.4°F12.4°C 53.9°F12.2°C 98% Calm Calm -- 29.97 in1014.9 mb - 0.00 in0.0 mm 0.00 in0.0 mm
05:10 AM 54.5°F12.5°C 53.9°F12.2°C 98% Calm Calm -- 29.97 in1014.9 mb - 0.00 in0.0 mm 0.00 in0.0 mm
05:20 AM 54.7°F12.6°C 54.1°F12.3°C 98% Calm Calm -- 29.97 in1014.9 mb - 0.00 in0.0 mm 0.00 in0.0 mm
05:30 AM 54.9°F12.7°C 54.3°F12.4°C 98% Calm Calm -- 29.97 in1014.9 mb - 0.00 in0.0 mm 0.00 in0.0 mm
05:40 AM 55.1°F12.8°C 54.5°F12.5°C 98% Calm Calm -- 29.97 in1014.9 mb - 0.00 in0.0 mm 0.00 in0.0 mm
05:50 AM 55.6°F13.1°C 55.0°F12.8°C 98% Calm Calm -- 29.97 in1014.9 mb - 0.00 in0.0 mm 0.00 in0.0 mm
06:00 AM 55.9°F13.3°C 55.4°F13.0°C 98% Calm Calm -- 29.97 in1014.9 mb - 0.00 in0.0 mm 0.00 in0.0 mm
06:10 AM 55.9°F13.3°C 55.4°F13.0°C 98% Calm Calm -- 29.97 in1014.9 mb - 0.00 in0.0 mm 0.00 in0.0 mm
06:20 AM 55.9°F13.3°C 55.4°F13.0°C 98% 3.5 mph W5.6 kmh W 4.6 mph7.4 kmh 29.97 in1014.9 mb - 0.00 in0.0 mm 0.00 in0.0 mm
06:30 AM 56.4°F13.6°C 55.8°F13.2°C 98% 1.2 mph NNW1.9 kmh NNW 3.5 mph5.6 kmh 29.97 in1014.9 mb - 0.00 in0.0 mm 0.00 in0.0 mm
06:40 AM 56.7°F13.7°C 56.1°F13.4°C 98% 2.3 mph NNW3.7 kmh NNW 3.5 mph5.6 kmh 29.97 in1014.9 mb - 0.00 in0.0 mm 0.00 in0.0 mm
06:50 AM 57.4°F14.1°C 56.8°F13.8°C 98% Calm Calm -- 30.00 in1015.9 mb - 0.00 in0.0 mm 0.00 in0.0 mm
07:00 AM 57.9°F14.4°C 57.4°F14.1°C 98% Calm Calm -- 29.97 in1014.9 mb - 0.00 in0.0 mm 0.00 in0.0 mm
07:10 AM 57.9°F14.4°C 57.4°F14.1°C 98% Calm Calm -- 29.97 in1014.9 mb - 0.00 in0.0 mm 0.00 in0.0 mm
07:20 AM 60.1°F15.6°C 58.6°F14.8°C 95% Calm Calm -- 30.00 in1015.9 mb - 0.00 in0.0 mm 0.00 in0.0 mm
07:30 AM 61.7°F16.5°C 59.0°F15.0°C 91% 1.2 mph SW1.9 kmh SW 3.5 mph5.6 kmh 30.00 in1015.9 mb - 0.00 in0.0 mm 0.00 in0.0 mm
07:40 AM 61.9°F16.6°C 57.6°F14.2°C 86% 2.3 mph WSW3.7 kmh WSW 4.6 mph7.4 kmh 30.00 in1015.9 mb - 0.00 in0.0 mm 0.00 in0.0 mm
07:50 AM 64.4°F18.0°C 59.1°F15.1°C 83% 2.3 mph WSW3.7 kmh WSW 3.5 mph5.6 kmh 30.00 in1015.9 mb - 0.00 in0.0 mm 0.00 in0.0 mm
08:00 AM 64.2°F17.9°C 57.9°F14.4°C 80% 1.2 mph NW1.9 kmh NW 3.5 mph5.6 kmh 30.00 in1015.9 mb - 0.00 in0.0 mm 0.00 in0.0 mm
08:10 AM 64.8°F18.2°C 57.7°F14.3°C 78% 1.2 mph NNW1.9 kmh NNW 4.6 mph7.4 kmh 30.00 in1015.9 mb - 0.00 in0.0 mm 0.00 in0.0 mm
08:20 AM 65.7°F18.7°C 57.9°F14.4°C 76% Calm Calm -- 30.00 in1015.9 mb - 0.00 in0.0 mm 0.00 in0.0 mm
08:30 AM 64.7°F18.2°C 57.3°F14.1°C 77% 3.5 mph NW5.6 kmh NW 3.5 mph5.6 kmh 30.00 in1015.9 mb - 0.00 in0.0 mm 0.00 in0.0 mm
08:40 AM 64.2°F17.9°C 57.6°F14.2°C 79% Calm Calm 2.3 mph3.7 kmh 30.00 in1015.9 mb - 0.00 in0.0 mm 0.00 in0.0 mm
08:50 AM 64.4°F18.0°C 57.8°F14.3°C 79% 2.3 mph WSW3.7 kmh WSW 3.5 mph5.6 kmh 30.00 in1015.9 mb - 0.00 in0.0 mm 0.00 in0.0 mm
09:00 AM 65.3°F18.5°C 58.3°F14.6°C 78% 1.2 mph WSW1.9 kmh WSW 3.5 mph5.6 kmh 30.00 in1015.9 mb - 0.00 in0.0 mm 0.00 in0.0 mm
09:10 AM 66.1°F18.9°C 58.7°F14.8°C 77% 3.5 mph NW5.6 kmh NW 5.8 mph9.3 kmh 30.00 in1015.9 mb - 0.00 in0.0 mm 0.00 in0.0 mm
09:20 AM 66.1°F18.9°C 58.0°F14.4°C 75% 1.2 mph N1.9 kmh N 3.5 mph5.6 kmh 30.00 in1015.9 mb - 0.00 in0.0 mm 0.00 in0.0 mm
09:30 AM 68.0°F20.0°C 58.6°F14.8°C 72% 3.5 mph N5.6 kmh N 3.5 mph5.6 kmh 30.00 in1015.9 mb - 0.00 in0.0 mm 0.00 in0.0 mm
09:40 AM 68.4°F20.2°C 57.8°F14.3°C 69% 1.2 mph N1.9 kmh N 5.8 mph9.3 kmh 30.00 in1015.9 mb - 0.00 in0.0 mm 0.00 in0.0 mm
09:50 AM 68.2°F20.1°C 56.0°F13.3°C 65% Calm Calm 3.5 mph5.6 kmh 30.00 in1015.9 mb - 0.00 in0.0 mm 0.00 in0.0 mm
10:00 AM 68.2°F20.1°C 56.0°F13.3°C 65% 1.2 mph E1.9 kmh E -- 29.97 in1014.9 mb - 0.00 in0.0 mm 0.00 in0.0 mm
10:10 AM 68.2°F20.1°C 56.0°F13.3°C 65% 2.3 mph NE3.7 kmh NE 3.5 mph5.6 kmh 29.97 in1014.9 mb - 0.00 in0.0 mm 0.00 in0.0 mm
10:20 AM 68.2°F20.1°C 56.0°F13.3°C 65% 2.3 mph NE3.7 kmh NE 2.3 mph3.7 kmh 29.97 in1014.9 mb - 0.00 in0.0 mm 0.00 in0.0 mm
10:30 AM 68.2°F20.1°C 56.0°F13.3°C 65% 4.6 mph SSE7.4 kmh SSE 8.1 mph13.0 kmh 29.97 in1014.9 mb - 0.00 in0.0 mm 0.00 in0.0 mm
10:40 AM 68.2°F20.1°C 56.0°F13.3°C 65% 3.5 mph SE5.6 kmh SE 3.5 mph5.6 kmh 29.97 in1014.9 mb - 0.00 in0.0 mm 0.00 in0.0 mm
10:50 AM 68.2°F20.1°C 56.0°F13.3°C 65% 3.5 mph ENE5.6 kmh ENE 5.8 mph9.3 kmh 30.00 in1015.9 mb - 0.00 in0.0 mm 0.00 in0.0 mm
11:00 AM 69.1°F20.6°C 55.5°F13.1°C 62% 3.5 mph SE5.6 kmh SE 8.1 mph13.0 kmh 29.97 in1014.9 mb - 0.00 in0.0 mm 0.00 in0.0 mm
11:10 AM 69.1°F20.6°C 55.5°F13.1°C 62% 1.2 mph ENE1.9 kmh ENE 4.6 mph7.4 kmh 29.97 in1014.9 mb - 0.00 in0.0 mm 0.00 in0.0 mm
11:20 AM 69.1°F20.6°C 56.0°F13.3°C 63% 6.9 mph SE11.1 kmh SE 8.1 mph13.0 kmh 29.97 in1014.9 mb - 0.00 in0.0 mm 0.00 in0.0 mm
11:30 AM 67.5°F19.7°C 55.7°F13.2°C 66% 6.9 mph SE11.1 kmh SE 11.5 mph18.5 kmh 30.00 in1015.9 mb - 0.00 in0.0 mm 0.00 in0.0 mm
11:40 AM 64.9°F18.3°C 56.8°F13.8°C 75% 4.6 mph SE7.4 kmh SE 6.9 mph11.1 kmh 30.00 in1015.9 mb - 0.00 in0.0 mm 0.00 in0.0 mm
11:50 AM 63.3°F17.4°C 58.7°F14.8°C 85% 3.5 mph E5.6 kmh E 5.8 mph9.3 kmh 30.00 in1015.9 mb - 0.00 in0.0 mm 0.00 in0.0 mm
12:00 PM 63.7°F17.6°C 60.4°F15.8°C 89% 4.6 mph E7.4 kmh E 5.8 mph9.3 kmh 29.97 in1014.9 mb - 0.00 in0.0 mm 0.00 in0.0 mm
12:10 PM 63.5°F17.5°C 60.8°F16.0°C 91% 4.6 mph NE7.4 kmh NE 8.1 mph13.0 kmh 29.97 in1014.9 mb - 0.00 in0.0 mm 0.00 in0.0 mm
12:20 PM 64.1°F17.8°C 61.2°F16.2°C 90% 4.6 mph SE7.4 kmh SE 8.1 mph13.0 kmh 29.97 in1014.9 mb - 0.00 in0.0 mm 0.00 in0.0 mm
12:30 PM 64.8°F18.2°C 60.1°F15.6°C 85% 3.5 mph SE5.6 kmh SE 5.8 mph9.3 kmh 29.97 in1014.9 mb - 0.00 in0.0 mm 0.00 in0.0 mm
12:40 PM 65.7°F18.7°C 60.0°F15.6°C 82% 4.6 mph E7.4 kmh E 5.8 mph9.3 kmh 29.97 in1014.9 mb - 0.00 in0.0 mm 0.00 in0.0 mm
12:50 PM 65.9°F18.8°C 59.9°F15.5°C 81% 2.3 mph ENE3.7 kmh ENE 3.5 mph5.6 kmh 29.97 in1014.9 mb - 0.00 in0.0 mm 0.00 in0.0 mm
01:00 PM 66.6°F19.2°C 59.5°F15.3°C 78% 1.2 mph E1.9 kmh E 5.8 mph9.3 kmh 29.97 in1014.9 mb - 0.00 in0.0 mm 0.00 in0.0 mm
01:10 PM 66.6°F19.2°C 59.1°F15.1°C 77% 4.6 mph ENE7.4 kmh ENE 5.8 mph9.3 kmh 29.97 in1014.9 mb - 0.00 in0.0 mm 0.00 in0.0 mm
01:20 PM 66.4°F19.1°C 58.6°F14.8°C 76% 2.3 mph E3.7 kmh E 3.5 mph5.6 kmh 29.97 in1014.9 mb - 0.00 in0.0 mm 0.00 in0.0 mm
01:30 PM 66.9°F19.4°C 59.1°F15.1°C 76% 2.3 mph NE3.7 kmh NE 3.5 mph5.6 kmh 29.97 in1014.9 mb - 0.00 in0.0 mm 0.00 in0.0 mm
01:40 PM 67.4°F19.7°C 58.4°F14.7°C 73% 1.2 mph N1.9 kmh N 2.3 mph3.7 kmh 29.97 in1014.9 mb - 0.00 in0.0 mm 0.00 in0.0 mm
01:50 PM 67.4°F19.7°C 58.1°F14.5°C 72% 1.2 mph NE1.9 kmh NE 5.8 mph9.3 kmh 29.97 in1014.9 mb - 0.00 in0.0 mm 0.00 in0.0 mm
02:00 PM 67.8°F19.9°C 58.0°F14.4°C 71% Calm Calm 3.5 mph5.6 kmh 29.94 in1013.9 mb - 0.00 in0.0 mm 0.00 in0.0 mm
02:10 PM 67.7°F19.8°C 58.4°F14.7°C 72% 3.5 mph NNE5.6 kmh NNE 5.8 mph9.3 kmh 29.94 in1013.9 mb - 0.00 in0.0 mm 0.00 in0.0 mm
02:20 PM 66.5°F19.2°C 57.5°F14.2°C 73% 1.2 mph SE1.9 kmh SE 3.5 mph5.6 kmh 29.94 in1013.9 mb - 0.00 in0.0 mm 0.00 in0.0 mm
02:30 PM 66.2°F19.0°C 58.4°F14.7°C 76% Calm Calm 2.3 mph3.7 kmh 29.94 in1013.9 mb - 0.00 in0.0 mm 0.00 in0.0 mm
02:40 PM 65.8°F18.8°C 58.8°F14.9°C 78% Calm Calm 3.5 mph5.6 kmh 29.94 in1013.9 mb - 0.00 in0.0 mm 0.00 in0.0 mm
02:50 PM 65.5°F18.6°C 58.8°F14.9°C 79% 3.5 mph WSW5.6 kmh WSW 3.5 mph5.6 kmh 29.94 in1013.9 mb - 0.00 in0.0 mm 0.00 in0.0 mm
03:00 PM 64.6°F18.1°C 58.9°F14.9°C 82% Calm Calm 2.3 mph3.7 kmh 29.94 in1013.9 mb - 0.00 in0.0 mm 0.00 in0.0 mm
03:10 PM 63.9°F17.7°C 59.6°F15.3°C 86% 1.2 mph S1.9 kmh S 3.5 mph5.6 kmh 29.94 in1013.9 mb - 0.09 in2.3 mm 0.09 in2.3 mm
03:20 PM 62.4°F16.9°C 60.1°F15.6°C 92% Calm Calm 2.3 mph3.7 kmh 29.94 in1013.9 mb - 0.14 in3.6 mm 0.14 in3.6 mm
03:30 PM 62.6°F17.0°C 61.4°F16.3°C 96% 1.2 mph N1.9 kmh N -- 29.94 in1013.9 mb - 0.14 in3.6 mm 0.14 in3.6 mm
03:40 PM 62.4°F16.9°C 61.9°F16.6°C 98% 2.3 mph N3.7 kmh N 3.5 mph5.6 kmh 29.94 in1013.9 mb - 0.14 in3.6 mm 0.14 in3.6 mm
03:50 PM 62.6°F17.0°C 62.0°F16.7°C 98% Calm Calm -- 29.94 in1013.9 mb - 0.19 in4.8 mm 0.19 in4.8 mm
04:00 PM 62.2°F16.8°C 61.7°F16.5°C 98% Calm Calm 2.3 mph3.7 kmh 29.94 in1013.9 mb - 0.19 in4.8 mm 0.19 in4.8 mm
04:10 PM 61.9°F16.6°C 61.3°F16.3°C 98% 1.2 mph NNW1.9 kmh NNW 3.5 mph5.6 kmh 29.94 in1013.9 mb - 0.09 in2.3 mm 0.19 in4.8 mm
04:20 PM 61.7°F16.5°C 61.1°F16.2°C 98% Calm Calm 3.5 mph5.6 kmh 29.91 in1012.9 mb - 0.05 in1.3 mm 0.19 in4.8 mm
04:30 PM 61.7°F16.5°C 61.1°F16.2°C 98% Calm Calm -- 29.94 in1013.9 mb - 0.05 in1.3 mm 0.19 in4.8 mm
04:40 PM 61.5°F16.4°C 61.0°F16.1°C 98% Calm Calm 3.5 mph5.6 kmh 29.94 in1013.9 mb - 0.05 in1.3 mm 0.19 in4.8 mm
04:50 PM 61.4°F16.3°C 60.8°F16.0°C 98% Calm Calm 2.3 mph3.7 kmh 29.94 in1013.9 mb - 0.00 in0.0 mm 0.19 in4.8 mm
05:00 PM 61.2°F16.2°C 60.6°F15.9°C 98% Calm Calm 2.3 mph3.7 kmh 29.94 in1013.9 mb - 0.00 in0.0 mm 0.19 in4.8 mm
05:10 PM 61.0°F16.1°C 60.4°F15.8°C 98% Calm Calm -- 29.94 in1013.9 mb - 0.05 in1.3 mm 0.24 in6.1 mm
05:20 PM 61.0°F16.1°C 60.4°F15.8°C 98% Calm Calm 2.3 mph3.7 kmh 29.94 in1013.9 mb - 0.09 in2.3 mm 0.28 in7.1 mm
05:30 PM 60.4°F15.8°C 59.8°F15.4°C 98% 1.2 mph N1.9 kmh N 3.5 mph5.6 kmh 29.94 in1013.9 mb - 0.09 in2.3 mm 0.28 in7.1 mm
05:40 PM 59.2°F15.1°C 58.6°F14.8°C 98% 3.5 mph NE5.6 kmh NE 5.8 mph9.3 kmh 29.94 in1013.9 mb - 0.09 in2.3 mm 0.28 in7.1 mm
05:50 PM 58.6°F14.8°C 58.0°F14.4°C 98% 1.2 mph NNE1.9 kmh NNE 5.8 mph9.3 kmh 29.91 in1012.9 mb - 0.09 in2.3 mm 0.28 in7.1 mm
06:00 PM 58.3°F14.6°C 57.7°F14.3°C 98% Calm Calm -- 29.94 in1013.9 mb - 0.14 in3.6 mm 0.33 in8.4 mm
06:10 PM 58.5°F14.7°C 57.9°F14.4°C 98% Calm Calm -- 29.94 in1013.9 mb - 0.09 in2.3 mm 0.33 in8.4 mm
06:20 PM 58.5°F14.7°C 57.9°F14.4°C 98% Calm Calm -- 29.94 in1013.9 mb - 0.05 in1.3 mm 0.33 in8.4 mm
06:30 PM 58.3°F14.6°C 57.7°F14.3°C 98% 1.2 mph W1.9 kmh W 3.5 mph5.6 kmh 29.94 in1013.9 mb - 0.05 in1.3 mm 0.33 in8.4 mm
06:40 PM 58.3°F14.6°C 57.7°F14.3°C 98% Calm Calm -- 29.94 in1013.9 mb - 0.05 in1.3 mm 0.33 in8.4 mm
06:50 PM 58.5°F14.7°C 57.9°F14.4°C 98% Calm Calm -- 29.94 in1013.9 mb - 0.05 in1.3 mm 0.33 in8.4 mm
07:00 PM 58.5°F14.7°C 57.9°F14.4°C 98% Calm Calm -- 29.94 in1013.9 mb - 0.05 in1.3 mm 0.38 in9.7 mm
07:10 PM 58.5°F14.7°C 57.9°F14.4°C 98% Calm Calm -- 29.94 in1013.9 mb - 0.05 in1.3 mm 0.38 in9.7 mm
07:20 PM 58.4°F14.7°C 57.9°F14.4°C 98% Calm Calm -- 29.94 in1013.9 mb - 0.05 in1.3 mm 0.38 in9.7 mm
07:30 PM 58.3°F14.6°C 57.7°F14.3°C 98% Calm Calm -- 29.94 in1013.9 mb - 0.05 in1.3 mm 0.38 in9.7 mm
07:40 PM 58.3°F14.6°C 57.7°F14.3°C 98% Calm Calm -- 29.94 in1013.9 mb - 0.05 in1.3 mm 0.38 in9.7 mm
07:50 PM 58.3°F14.6°C 57.7°F14.3°C 98% Calm Calm -- 29.94 in1013.9 mb - 0.05 in1.3 mm 0.38 in9.7 mm
08:00 PM 58.1°F14.5°C 57.5°F14.2°C 98% Calm Calm -- 29.94 in1013.9 mb - 0.00 in0.0 mm 0.38 in9.7 mm
08:10 PM 58.1°F14.5°C 57.5°F14.2°C 98% Calm Calm -- 29.94 in1013.9 mb - 0.05 in1.3 mm 0.43 in10.9 mm
08:20 PM 58.1°F14.5°C 57.5°F14.2°C 98% Calm Calm -- 29.94 in1013.9 mb - 0.05 in1.3 mm 0.43 in10.9 mm
08:30 PM 57.9°F14.4°C 57.4°F14.1°C 98% Calm Calm 2.3 mph3.7 kmh 29.94 in1013.9 mb - 0.05 in1.3 mm 0.43 in10.9 mm
08:40 PM 58.1°F14.5°C 57.5°F14.2°C 98% Calm Calm 3.5 mph5.6 kmh 29.94 in1013.9 mb - 0.05 in1.3 mm 0.43 in10.9 mm
08:50 PM 58.1°F14.5°C 57.5°F14.2°C 98% Calm Calm -- 29.94 in1013.9 mb - 0.05 in1.3 mm 0.43 in10.9 mm
09:00 PM 58.1°F14.5°C 57.5°F14.2°C 98% 1.2 mph SW1.9 kmh SW 3.5 mph5.6 kmh 29.97 in1014.9 mb - 0.09 in2.3 mm 0.47 in11.9 mm
09:10 PM 58.3°F14.6°C 57.7°F14.3°C 98% Calm Calm -- 29.97 in1014.9 mb - 0.05 in1.3 mm 0.47 in11.9 mm
09:20 PM 58.3°F14.6°C 57.7°F14.3°C 98% Calm Calm -- 29.97 in1014.9 mb - 0.05 in1.3 mm 0.47 in11.9 mm
09:30 PM 58.3°F14.6°C 57.7°F14.3°C 98% Calm Calm -- 29.97 in1014.9 mb - 0.05 in1.3 mm 0.47 in11.9 mm
09:40 PM 58.3°F14.6°C 57.8°F14.3°C 98% Calm Calm -- 29.97 in1014.9 mb - 0.05 in1.3 mm 0.47 in11.9 mm
09:50 PM 58.3°F14.6°C 57.7°F14.3°C 98% Calm Calm -- 29.97 in1014.9 mb - 0.05 in1.3 mm 0.47 in11.9 mm
10:00 PM 58.3°F14.6°C 57.7°F14.3°C 98% Calm Calm -- 29.94 in1013.9 mb - 0.00 in0.0 mm 0.47 in11.9 mm
10:10 PM 58.3°F14.6°C 57.7°F14.3°C 98% Calm Calm -- 29.94 in1013.9 mb - 0.00 in0.0 mm 0.47 in11.9 mm
10:20 PM 58.1°F14.5°C 57.5°F14.2°C 98% Calm Calm -- 29.94 in1013.9 mb - 0.00 in0.0 mm 0.47 in11.9 mm
10:30 PM 58.0°F14.4°C 57.4°F14.1°C 98% Calm Calm 2.3 mph3.7 kmh 29.94 in1013.9 mb - 0.00 in0.0 mm 0.47 in11.9 mm
10:40 PM 57.9°F14.4°C 57.4°F14.1°C 98% Calm Calm -- 29.94 in1013.9 mb - 0.00 in0.0 mm 0.47 in11.9 mm
10:50 PM 57.7°F14.3°C 57.2°F14.0°C 98% Calm Calm -- 29.94 in1013.9 mb - 0.00 in0.0 mm 0.47 in11.9 mm
11:00 PM 57.7°F14.3°C 57.2°F14.0°C 98% Calm Calm -- 29.94 in1013.9 mb - 0.00 in0.0 mm 2.86 in72.6 mm
11:10 PM 57.7°F14.3°C 57.2°F14.0°C 98% Calm Calm -- 29.94 in1013.9 mb - 0.00 in0.0 mm 2.86 in72.6 mm
11:20 PM 57.7°F14.3°C 57.2°F14.0°C 98% Calm Calm -- 29.91 in1012.9 mb - 0.00 in0.0 mm 2.86 in72.6 mm
11:30 PM 57.4°F14.1°C 56.9°F13.8°C 98% Calm Calm -- 29.94 in1013.9 mb - 0.00 in0.0 mm 2.86 in72.6 mm
11:40 PM 57.2°F14.0°C 56.6°F13.7°C 98% Calm Calm -- 29.94 in1013.9 mb - 0.00 in0.0 mm 2.86 in72.6 mm
11:50 PM 57.2°F14.0°C 56.6°F13.7°C 98% 1.2 mph SE1.9 kmh SE 3.5 mph5.6 kmh 29.94 in1013.9 mb - 0.00 in0.0 mm 2.86 in72.6 mm